Time;durP1;ratioP1;P1;durP2;ratioP2;P2;SDS_P1;SDS_P2;PMS_P1;PMS_P2;Temp;Humidity;BMP_temperature;BMP_pressure;BME280_temperature;BME280_humidity;BME280_pressure;Samples;Min_cycle;Max_cycle;Signal;HPM_P1;HPM_P2
2021/11/01 00:00:58;;;;;;;3.72;0.55;;;;;;;8.60;70.25;97292.56;5003568;28;20046;-55
2021/11/01 00:03:25;;;;;;;5.03;1.50;;;;;;;8.60;70.57;97298.59;5003331;28;20049;-51
2021/11/01 00:05:51;;;;;;;3.65;0.40;;;;;;;8.67;69.84;97309.50;5006383;28;20531;-55
2021/11/01 00:08:18;;;;;;;2.95;0.35;;;;;;;8.69;70.84;97312.88;5005884;28;20092;-49
2021/11/01 00:10:45;;;;;;;3.28;0.40;;;;;;;8.69;69.84;97302.53;5005126;28;20053;-56
2021/11/01 00:13:11;;;;;;;3.28;0.40;;;;;;;8.68;70.06;97311.16;5003928;28;20534;-50
2021/11/01 00:15:38;;;;;;;6.82;0.75;;;;;;;8.67;70.36;97294.00;5004181;28;20041;-51
2021/11/01 00:18:05;;;;;;;6.00;0.85;;;;;;;8.68;70.17;97300.84;5003739;28;20501;-48
2021/11/01 00:20:31;;;;;;;8.40;0.43;;;;;;;8.71;70.65;97311.06;5007014;28;20050;-52
2021/11/01 00:22:58;;;;;;;7.32;0.93;;;;;;;8.74;69.85;97300.63;5005033;28;20050;-54
2021/11/01 00:25:25;;;;;;;4.85;1.08;;;;;;;8.75;70.28;97311.78;5005082;28;20058;-55
2021/11/01 00:27:52;;;;;;;6.68;0.90;;;;;;;8.74;70.42;97295.44;5005099;28;20046;-57
2021/11/01 00:30:18;;;;;;;4.78;0.47;;;;;;;8.72;70.72;97296.41;5003658;28;20535;-51
2021/11/01 00:32:47;;;;;;;7.68;0.82;;;;;;;8.70;70.33;97296.47;5005635;28;20096;-51
2021/11/01 00:35:14;;;;;;;5.88;0.68;;;;;;;8.73;70.60;97298.94;5002893;28;20259;-52
2021/11/01 00:37:41;;;;;;;6.38;1.15;;;;;;;8.71;70.50;97286.97;5005724;28;20068;-51
2021/11/01 00:40:08;;;;;;;7.57;1.05;;;;;;;8.68;70.11;97289.69;5005759;28;20046;-56
2021/11/01 00:42:35;;;;;;;1.95;0.63;;;;;;;8.69;70.86;97293.97;5003716;28;20533;-55
2021/11/01 00:45:02;;;;;;;4.18;0.65;;;;;;;8.69;70.75;97281.91;5004180;28;20057;-56
2021/11/01 00:47:29;;;;;;;2.28;0.50;;;;;;;8.68;70.33;97282.78;5001953;28;20532;-48
2021/11/01 00:49:56;;;;;;;6.05;0.70;;;;;;;8.65;70.40;97280.31;5006475;28;20073;-54
2021/11/01 00:52:26;;;;;;;5.97;1.48;;;;;;;8.65;70.41;97282.06;5007015;28;20046;-53
2021/11/01 00:54:59;;;;;;;;;;;;;;;8.57;71.55;97290.94;5006335;28;20107;-54
2021/11/01 00:57:26;;;;;;;4.68;0.50;;;;;;;8.62;70.50;97280.47;5003044;28;19922;-50
2021/11/01 00:59:54;;;;;;;2.70;0.43;;;;;;;8.63;70.48;97282.13;5004715;28;20107;-51
2021/11/01 01:02:21;;;;;;;6.03;0.88;;;;;;;8.67;71.18;97270.78;5004468;28;20053;-53
2021/11/01 01:04:48;;;;;;;5.15;0.68;;;;;;;8.68;71.05;97285.34;5002284;28;20137;-52
2021/11/01 01:07:15;;;;;;;5.25;0.93;;;;;;;8.70;70.87;97283.56;5007642;28;20123;-50
2021/11/01 01:09:42;;;;;;;4.45;0.60;;;;;;;8.70;70.96;97278.41;5005131;28;20140;-47
2021/11/01 01:12:09;;;;;;;9.25;0.70;;;;;;;8.67;70.45;97286.28;5003751;28;20049;-53
2021/11/01 01:14:43;;;;;;;7.40;0.60;;;;;;;8.68;71.13;97285.34;5008672;28;20501;-52
2021/11/01 01:17:10;;;;;;;5.00;0.73;;;;;;;8.67;70.52;97288.00;5005431;28;20050;-58
2021/11/01 01:19:50;;;;;;;5.40;0.60;;;;;;;8.64;70.70;97278.66;5006844;28;20115;-50
2021/11/01 01:22:28;;;;;;;1.38;0.30;;;;;;;8.62;70.99;97288.19;5009184;28;20744;-53
2021/11/01 01:25:00;;;;;;;9.45;0.85;;;;;;;8.64;70.83;97314.75;5006631;28;20046;-49
2021/11/01 01:27:27;;;;;;;5.28;1.05;;;;;;;8.66;70.78;97289.75;5005304;28;20065;-53
2021/11/01 01:29:53;;;;;;;2.80;0.32;;;;;;;8.66;70.70;97279.44;5006146;28;20505;-54
2021/11/01 01:32:20;;;;;;;5.38;0.50;;;;;;;8.69;70.36;97288.78;5004677;28;20104;-48
2021/11/01 01:34:47;;;;;;;4.82;0.40;;;;;;;8.66;70.97;97266.53;5008284;28;20104;-50
2021/11/01 01:37:14;;;;;;;2.63;0.63;;;;;;;8.68;71.15;97271.63;5002782;28;20045;-48
2021/11/01 01:39:41;;;;;;;7.63;0.70;;;;;;;8.68;70.83;97287.13;5004441;28;20100;-54
2021/11/01 01:42:07;;;;;;;3.97;0.40;;;;;;;8.70;70.41;97281.00;5005343;28;20046;-47
2021/11/01 01:44:37;;;;;;;4.30;0.65;;;;;;;8.73;70.12;97267.97;5009561;28;20568;-47
2021/11/01 01:47:04;;;;;;;6.35;0.82;;;;;;;8.77;70.67;97283.31;5008717;28;20053;-51
2021/11/01 01:49:31;;;;;;;3.47;0.70;;;;;;;8.79;70.66;97278.94;5007304;28;20054;-51
2021/11/01 01:51:57;;;;;;;2.72;0.47;;;;;;;8.81;70.47;97282.31;5009393;28;20045;-52
2021/11/01 01:54:24;;;;;;;7.93;0.73;;;;;;;8.83;70.52;97277.91;5004118;28;20054;-54
2021/11/01 01:56:51;;;;;;;8.00;1.15;;;;;;;8.85;70.46;97291.63;5007760;28;20045;-54
2021/11/01 01:59:19;;;;;;;4.05;0.38;;;;;;;8.86;70.07;97290.72;5007075;28;20049;-51
2021/11/01 02:01:48;;;;;;;7.85;0.70;;;;;;;8.89;69.83;97290.59;5007554;28;20049;-53
2021/11/01 02:04:18;;;;;;;6.30;1.13;;;;;;;8.91;70.07;97295.69;5006529;28;20044;-51
2021/11/01 02:07:05;;;;;;;5.00;0.82;;;;;;;8.92;70.16;97292.19;5003537;28;20050;-54
2021/11/01 02:09:56;;;;;;;4.90;0.70;;;;;;;8.84;70.20;97290.75;5006817;28;20107;-51
2021/11/01 02:12:31;;;;;;;4.07;0.47;;;;;;;8.85;70.99;97286.44;5006662;28;20045;-51
2021/11/01 02:15:06;;;;;;;7.03;0.88;;;;;;;8.86;70.89;97293.28;5008282;28;20625;-54
2021/11/01 02:17:34;;;;;;;2.55;0.50;;;;;;;8.85;70.47;97301.94;4989895;28;20496;-52
2021/11/01 02:20:05;;;;;;;3.80;0.60;;;;;;;8.85;71.34;97301.94;5007505;28;20045;-55
2021/11/01 02:22:58;;;;;;;5.22;1.25;;;;;;;8.79;71.13;97284.09;5004322;28;20046;-52
2021/11/01 02:25:47;;;;;;;8.52;1.42;;;;;;;8.83;71.15;97314.06;5005412;28;20057;-50
2021/11/01 02:28:18;;;;;;;2.50;0.88;;;;;;;8.84;71.79;97315.72;5005262;28;20445;-53
2021/11/01 02:30:46;;;;;;;5.93;0.68;;;;;;;8.82;71.85;97304.63;5004145;28;20100;-56
2021/11/01 02:33:15;;;;;;;4.80;0.47;;;;;;;8.75;71.75;97316.94;5005915;28;20057;-53
2021/11/01 02:35:43;;;;;;;2.10;0.60;;;;;;;8.77;72.46;97307.38;5005782;28;20041;-53
2021/11/01 02:38:15;;;;;;;3.83;0.70;;;;;;;8.71;72.80;97318.78;5002382;28;20057;-50
2021/11/01 02:40:44;;;;;;;4.72;0.50;;;;;;;8.73;72.29;97311.00;5004220;28;20045;-52
2021/11/01 02:43:13;;;;;;;2.28;0.52;;;;;;;8.72;71.87;97310.16;5004770;28;20718;-51
2021/11/01 02:45:41;;;;;;;2.60;0.40;;;;;;;8.73;72.69;97304.09;5005140;28;20050;-57
2021/11/01 02:48:08;;;;;;;6.00;0.50;;;;;;;8.67;72.82;97309.50;5006355;28;20096;-53
2021/11/01 02:50:34;;;;;;;7.28;0.55;;;;;;;8.65;72.23;97315.63;5008920;28;20641;-55
2021/11/01 02:53:02;;;;;;;1.33;0.50;;;;;;;8.64;73.16;97309.59;5008772;28;20057;-53
2021/11/01 02:55:29;;;;;;;2.47;0.47;;;;;;;8.65;72.45;97316.44;5002754;28;20053;-54
2021/11/01 02:57:56;;;;;;;1.88;0.20;;;;;;;8.66;72.50;97323.31;5006492;28;20472;-52
2021/11/01 03:00:25;;;;;;;3.70;0.52;;;;;;;8.64;72.54;97314.75;5003939;28;20076;-52
2021/11/01 03:02:53;;;;;;;3.97;0.90;;;;;;;8.65;71.92;97326.75;5003812;28;20501;-55
2021/11/01 03:05:22;;;;;;;4.95;1.05;;;;;;;8.65;72.92;97337.09;5004858;28;20054;-53
2021/11/01 03:07:52;;;;;;;3.70;0.50;;;;;;;8.63;73.01;97348.38;5007081;28;20053;-51
2021/11/01 03:10:20;;;;;;;4.13;0.57;;;;;;;8.61;73.53;97336.38;5004126;28;20103;-55
2021/11/01 03:12:49;;;;;;;3.38;0.80;;;;;;;8.63;72.48;97348.38;5001734;28;20385;-53
2021/11/01 03:15:23;;;;;;;2.17;0.73;;;;;;;8.67;72.04;97355.09;5001601;28;20050;-52
2021/11/01 03:17:57;;;;;;;3.85;0.75;;;;;;;8.64;72.75;97350.88;5002247;28;20054;-53
2021/11/01 03:20:28;;;;;;;1.95;0.55;;;;;;;8.63;72.71;97354.38;5004456;28;20053;-48
2021/11/01 03:22:59;;;;;;;2.80;0.63;;;;;;;8.65;73.07;97370.63;5006751;28;20050;-53
2021/11/01 03:25:32;;;;;;;1.75;0.65;;;;;;;8.61;72.68;97371.66;5003519;28;20042;-57
2021/11/01 03:28:01;;;;;;;5.03;0.45;;;;;;;8.63;73.01;97358.69;5001684;28;20445;-53
2021/11/01 03:30:29;;;;;;;4.47;0.30;;;;;;;8.60;72.70;97364.81;5005993;28;20054;-53
2021/11/01 03:32:57;;;;;;;4.40;0.40;;;;;;;8.56;72.33;97379.56;5005849;28;20659;-53
2021/11/01 03:35:26;;;;;;;4.68;0.60;;;;;;;8.47;73.35;97370.41;5004449;28;20049;-50
2021/11/01 03:37:56;;;;;;;4.93;0.50;;;;;;;8.46;72.74;97367.88;5006617;28;20096;-51
2021/11/01 03:40:27;;;;;;;3.35;0.65;;;;;;;8.43;73.25;97365.41;5001069;28;20645;-57
2021/11/01 03:42:54;;;;;;;2.17;0.32;;;;;;;8.41;72.56;97365.47;5005081;28;20049;-53
2021/11/01 03:45:24;;;;;;;2.20;0.50;;;;;;;8.41;72.34;97364.66;5006194;28;20046;-54
2021/11/01 03:47:54;;;;;;;2.42;0.60;;;;;;;8.40;72.69;97370.69;5005773;28;20099;-56
2021/11/01 03:50:34;;;;;;;2.15;0.28;;;;;;;8.37;73.60;97363.91;5005418;28;20050;-53
2021/11/01 03:53:01;;;;;;;5.85;0.40;;;;;;;8.36;72.67;97363.06;5006182;28;20595;-48
2021/11/01 03:55:29;;;;;;;3.03;0.70;;;;;;;8.43;72.96;97371.41;5003572;28;20046;-51
2021/11/01 03:57:58;;;;;;;4.00;0.60;;;;;;;8.44;72.38;97375.66;5005844;28;20049;-57
2021/11/01 04:00:27;;;;;;;2.97;0.75;;;;;;;8.44;72.74;97393.72;5004291;28;20061;-49
2021/11/01 04:02:55;;;;;;;2.35;0.32;;;;;;;8.49;73.05;97384.06;5006495;28;20075;-52
2021/11/01 04:05:21;;;;;;;3.67;0.38;;;;;;;8.52;73.32;97390.03;5003748;28;20037;-53
2021/11/01 04:07:48;;;;;;;3.05;0.70;;;;;;;8.59;73.13;97399.25;5006382;28;20061;-50
2021/11/01 04:10:15;;;;;;;3.17;0.70;;;;;;;8.59;72.56;97392.38;4999136;28;20096;-54
2021/11/01 04:12:43;;;;;;;4.10;0.68;;;;;;;8.57;72.97;97390.72;5003856;28;20182;-56
2021/11/01 04:15:14;;;;;;;1.90;0.57;;;;;;;8.58;72.81;97397.59;5005791;28;20092;-54
2021/11/01 04:17:45;;;;;;;2.92;0.50;;;;;;;8.58;72.58;97392.44;5003764;28;20058;-50
2021/11/01 04:20:32;;;;;;;5.75;0.45;;;;;;;8.52;72.63;97402.94;5007361;28;20480;-53
2021/11/01 04:23:02;;;;;;;2.78;0.50;;;;;;;8.46;71.98;97402.28;5003013;28;20103;-51
2021/11/01 04:25:31;;;;;;;3.55;0.77;;;;;;;8.43;71.93;97415.28;4997341;28;20092;-55
2021/11/01 04:27:59;;;;;;;4.88;0.70;;;;;;;8.44;73.00;97427.25;5005301;28;20050;-60
2021/11/01 04:30:36;;;;;;;6.50;1.23;;;;;;;8.47;71.95;97434.91;5009049;28;20050;-54
2021/11/01 04:33:04;;;;;;;1.60;0.73;;;;;;;8.48;73.33;97428.84;5005186;28;20058;-54
2021/11/01 04:35:35;;;;;;;3.45;0.55;;;;;;;8.52;72.67;97428.72;5005289;28;20107;-50
2021/11/01 04:38:12;;;;;;;0.77;0.40;;;;;;;8.52;72.77;97433.88;5007264;28;20096;-54
2021/11/01 04:43:51;;;;;;;0.60;0.28;;;;;;;8.51;72.85;97432.22;5003536;28;20054;-50
2021/11/01 04:54:32;;;;;;;2.85;0.50;;;;;;;8.46;72.39;97440.97;5007005;28;20049;-53
2021/11/01 04:56:59;;;;;;;0.70;0.22;;;;;;;8.44;72.71;97441.91;5004837;28;20108;-53
2021/11/01 04:59:28;;;;;;;5.22;0.50;;;;;;;8.44;72.50;97453.06;5009527;28;20053;-49
2021/11/01 05:01:56;;;;;;;4.28;0.70;;;;;;;8.39;71.63;97442.06;5005127;28;20054;-54
2021/11/01 05:04:25;;;;;;;1.65;0.60;;;;;;;8.42;72.00;97449.72;5008572;28;20050;-50
2021/11/01 05:06:56;;;;;;;1.08;0.55;;;;;;;8.39;71.97;97460.13;5006223;28;20050;-52
2021/11/01 05:09:27;;;;;;;2.10;0.20;;;;;;;8.39;72.42;97460.13;5008997;28;20578;-50
2021/11/01 05:12:03;;;;;;;1.88;0.60;;;;;;;8.36;72.21;97471.41;5005342;28;20085;-54
2021/11/01 05:14:35;;;;;;;2.03;0.30;;;;;;;8.34;71.63;97472.31;5008280;28;20046;-53
2021/11/01 05:17:16;;;;;;;6.65;1.15;;;;;;;8.34;71.50;97472.31;5008254;28;20112;-48
2021/11/01 05:22:45;;;;;;;2.08;0.50;;;;;;;8.33;71.88;97480.97;5008564;28;20617;-48
2021/11/01 05:25:17;;;;;;;;;;;;;;;8.22;71.27;97484.78;5008333;28;20050;-56
2021/11/01 05:27:55;;;;;;;1.65;0.43;;;;;;;8.27;71.50;97486.34;5008864;28;19947;-54
2021/11/01 05:30:29;;;;;;;2.28;0.40;;;;;;;8.25;71.20;97494.16;5008348;28;20473;-53
2021/11/01 05:33:05;;;;;;;4.43;0.60;;;;;;;8.28;71.77;97500.94;5008569;28;20042;-55
2021/11/01 05:35:32;;;;;;;1.48;0.55;;;;;;;8.25;71.51;97493.28;5007850;28;20597;-54
2021/11/01 05:37:59;;;;;;;5.38;0.70;;;;;;;8.22;72.10;97489.94;5006844;28;20061;-52
2021/11/01 05:40:26;;;;;;;2.47;0.55;;;;;;;8.17;72.48;97496.16;5005994;28;20125;-55
2021/11/01 05:42:53;;;;;;;3.75;0.32;;;;;;;8.16;72.58;97489.28;5006321;28;20053;-51
2021/11/01 05:45:20;;;;;;;4.38;0.75;;;;;;;8.15;71.90;97498.78;5007267;28;20054;-51
2021/11/01 05:47:54;;;;;;;3.90;0.55;;;;;;;8.12;71.36;97498.88;5006866;28;20050;-55
2021/11/01 05:50:21;;;;;;;3.95;0.40;;;;;;;8.11;72.23;97497.19;5006674;28;20042;-52
2021/11/01 05:52:48;;;;;;;2.58;0.40;;;;;;;8.06;72.73;97506.81;5008018;28;20644;-51
2021/11/01 06:01:33;;;;;;;4.63;0.75;;;;;;;8.04;72.42;97498.28;4992336;28;20092;-50
2021/11/01 06:09:56;;;;;;;2.95;0.40;;;;;;;8.02;71.36;97512.94;5004932;28;20054;-54
2021/11/01 06:14:41;;;;;;;3.50;0.52;;;;;;;7.94;71.80;97506.31;5004786;28;20181;-55
2021/11/01 06:17:07;;;;;;;3.22;0.40;;;;;;;7.97;71.81;97510.53;5004902;28;20456;-50
2021/11/01 06:19:34;;;;;;;3.10;0.35;;;;;;;7.91;73.12;97511.56;5008522;28;20053;-54
2021/11/01 06:22:01;;;;;;;2.92;0.40;;;;;;;7.93;72.53;97517.53;5005107;28;20107;-51
2021/11/01 06:27:16;;;;;;;3.53;0.68;;;;;;;7.89;72.33;97510.78;5002696;28;20077;-50
2021/11/01 06:29:55;;;;;;;3.92;0.90;;;;;;;7.90;72.68;97507.31;5001410;28;20057;-52
2021/11/01 06:32:33;;;;;;;3.92;0.40;;;;;;;7.85;72.84;97511.78;5005991;28;20608;-57
2021/11/01 06:40:43;;;;;;;17.42;6.43;;;;;;;7.81;72.50;97515.34;5005462;28;20401;-53
2021/11/01 06:52:18;;;;;;;6.53;0.93;;;;;;;7.80;72.99;97526.56;5001619;28;20077;-50
2021/11/01 06:54:58;;;;;;;1.58;0.80;;;;;;;7.79;72.40;97524.84;5002679;28;20401;-57
2021/11/01 06:57:32;;;;;;;3.90;0.50;;;;;;;7.78;72.84;97530.91;5013732;28;20112;-53
2021/11/01 07:20:23;;;;;;;7.70;1.13;;;;;;;7.81;72.60;97548.84;5004042;28;20046;-50
2021/11/01 07:22:53;;;;;;;5.53;0.65;;;;;;;7.82;73.17;97555.69;5002862;28;20046;-49
2021/11/01 07:38:01;;;;;;;2.35;0.45;;;;;;;7.92;72.68;97564.81;5000411;28;20050;-53
2021/11/01 08:17:41;;;;;;;8.93;0.68;;;;;;;8.09;71.78;97573.72;4999821;28;20127;-56
2021/11/01 08:20:44;;;;;;;5.00;0.70;;;;;;;13.79;58.38;97642.72;5015042;28;20065;-51
2021/11/01 08:21:44;;;;;;;4.13;1.23;;;;;;;13.99;57.04;97618.22;4999659;28;20533;-56
2021/11/01 08:23:39;;;;;;;11.68;1.02;;;;;;;14.39;57.29;97621.16;5009663;28;20428;-52
2021/11/01 08:29:24;;;;;;;5.18;0.95;;;;;;;15.16;53.57;97630.63;5004839;28;20047;-54
2021/11/01 08:37:48;;;;;;;8.48;1.20;;;;;;;16.95;51.90;97638.53;5006688;28;20080;-51
2021/11/01 08:40:09;;;;;;;7.13;0.95;;;;;;;17.58;51.10;97643.84;5006284;28;20042;-62
2021/11/01 08:42:58;;;;;;;2.72;1.00;;;;;;;18.24;49.85;97641.88;5007312;28;20080;-55
2021/11/01 08:45:59;;;;;;;3.95;0.93;;;;;;;18.69;48.03;97643.81;4999533;28;20061;-55
2021/11/01 08:48:30;;;;;;;6.18;1.00;;;;;;;19.16;46.63;97640.34;4998560;28;20053;-53
2021/11/01 08:51:28;;;;;;;5.60;0.85;;;;;;;19.61;45.95;97638.66;5006018;28;20600;-53
2021/11/01 09:01:21;;;;;;;3.40;0.60;;;;;;;20.20;45.11;97634.03;4998851;28;20054;-51
2021/11/01 09:02:27;;;;;;;13.23;3.30;;;;;;;20.98;42.25;97637.38;5004853;28;20058;-53
2021/11/01 09:05:33;;;;;;;16.25;3.45;;;;;;;21.56;42.32;97647.34;5006358;28;20140;-56
2021/11/01 09:10:53;;;;;;;4.43;0.98;;;;;;;22.14;40.12;97654.69;5005726;28;20041;-59
2021/11/01 09:13:32;;;;;;;22.33;5.22;;;;;;;22.66;40.07;97650.97;5002547;28;20084;-59
2021/11/01 09:19:37;;;;;;;7.15;2.35;;;;;;;22.60;37.69;97655.00;5003318;28;20092;-53
2021/11/01 09:21:38;;;;;;;3.15;0.77;;;;;;;22.65;37.18;97641.38;5000445;28;20046;-56
2021/11/01 09:25:52;;;;;;;4.45;1.48;;;;;;;22.50;37.12;97649.72;5006132;28;20421;-55
2021/11/01 09:26:58;;;;;;;10.68;2.08;;;;;;;22.22;37.01;97662.72;5008732;28;20050;-57
2021/11/01 09:29:46;;;;;;;8.45;2.63;;;;;;;21.91;37.40;97652.28;5008944;28;20049;-58
2021/11/01 09:43:19;;;;;;;7.88;2.15;;;;;;;19.47;40.74;97668.63;5001028;28;20065;-50
2021/11/01 09:45:47;;;;;;;4.30;1.15;;;;;;;19.44;40.73;97658.34;5001842;28;20046;-53
2021/11/01 09:48:15;;;;;;;10.73;2.65;;;;;;;19.47;41.08;97669.47;5004608;28;20557;-56
2021/11/01 09:50:42;;;;;;;5.13;0.85;;;;;;;19.59;40.58;97677.34;5001258;28;20069;-60
2021/11/01 09:53:16;;;;;;;7.82;2.13;;;;;;;19.93;40.86;97669.44;5003191;28;20706;-57
2021/11/01 09:55:48;;;;;;;6.22;1.48;;;;;;;20.24;41.08;97661.75;5004829;28;20061;-57
2021/11/01 10:01:11;;;;;;;3.88;1.08;;;;;;;21.20;39.85;97678.47;5003162;28;20045;-57
2021/11/01 10:03:40;;;;;;;6.72;1.23;;;;;;;21.51;39.32;97678.47;5007119;28;20056;-57
2021/11/01 10:06:12;;;;;;;4.65;1.70;;;;;;;21.78;37.89;97690.25;5005458;28;20038;-55
2021/11/01 10:08:39;;;;;;;5.38;1.35;;;;;;;22.00;38.42;97700.72;5004274;28;20049;-56
2021/11/01 10:11:25;;;;;;;5.13;0.93;;;;;;;21.98;36.20;97692.94;5007142;28;20041;-55
2021/11/01 10:13:54;;;;;;;6.28;1.08;;;;;;;21.96;37.92;97700.97;5007645;28;20050;-57
2021/11/01 10:19:30;;;;;;;3.80;1.08;;;;;;;21.51;38.05;97696.91;5018333;28;20050;-55
2021/11/01 10:22:01;;;;;;;3.13;1.20;;;;;;;21.41;37.19;97688.16;5007479;28;20050;-54
2021/11/01 10:24:38;;;;;;;3.88;1.45;;;;;;;21.14;38.21;97698.25;5004968;28;20432;-56
2021/11/01 10:27:08;;;;;;;4.15;1.05;;;;;;;21.02;39.06;97696.66;5010039;28;20383;-53
2021/11/01 10:29:50;;;;;;;3.17;0.73;;;;;;;20.38;37.28;97699.19;5005355;28;20057;-54
2021/11/01 10:32:39;;;;;;;2.78;0.65;;;;;;;19.97;39.52;97694.50;5007520;28;20053;-53
2021/11/01 10:35:27;;;;;;;4.97;0.70;;;;;;;19.62;39.86;97698.13;5005576;28;20057;-57
2021/11/01 10:38:21;;;;;;;5.03;0.85;;;;;;;19.00;39.79;97706.22;4999605;28;20050;-55
2021/11/01 10:41:00;;;;;;;2.53;0.70;;;;;;;18.55;41.05;97714.78;4999149;28;20123;-57
2021/11/01 10:43:47;;;;;;;6.25;0.80;;;;;;;18.08;41.98;97707.59;5001271;28;20099;-57
2021/11/01 10:58:07;;;;;;;2.05;0.65;;;;;;;16.94;44.77;97715.28;4977328;28;20045;-57
2021/11/01 11:11:38;;;;;;;3.95;0.70;;;;;;;16.24;45.71;97730.25;4988477;28;20045;-59
2021/11/01 11:14:17;;;;;;;3.65;0.40;;;;;;;16.04;45.69;97737.53;4999064;28;20103;-55
2021/11/01 11:19:46;;;;;;;1.75;0.38;;;;;;;15.77;46.64;97749.56;4997270;28;20054;-56
2021/11/01 11:25:17;;;;;;;2.60;0.65;;;;;;;15.70;47.69;97752.66;4999681;28;20065;-57
2021/11/01 11:30:52;;;;;;;6.57;2.00;;;;;;;15.61;47.12;97762.72;4980864;28;20460;-57
2021/11/01 11:33:40;;;;;;;2.38;0.70;;;;;;;15.49;47.63;97766.03;4999447;28;20127;-50
2021/11/01 11:47:40;;;;;;;2.95;0.85;;;;;;;15.00;48.51;97791.47;5001759;28;20465;-55
2021/11/01 11:50:13;;;;;;;4.47;1.33;;;;;;;14.85;48.23;97806.19;5004642;28;20054;-58
2021/11/01 11:52:40;;;;;;;6.75;2.65;;;;;;;14.78;48.74;97805.72;5005200;28;20054;-52
2021/11/01 11:55:17;;;;;;;3.08;1.33;;;;;;;14.63;48.20;97810.81;5001608;28;20065;-54
2021/11/01 11:57:52;;;;;;;6.63;2.78;;;;;;;14.63;48.70;97810.00;5003266;28;20050;-54
2021/11/01 12:00:19;;;;;;;6.35;1.25;;;;;;;14.62;48.46;97803.09;5004553;28;20046;-51
2021/11/01 12:02:49;;;;;;;11.95;2.67;;;;;;;14.72;48.84;97803.41;5003977;28;20077;-54
2021/11/01 12:05:25;;;;;;;5.18;1.13;;;;;;;14.64;49.20;97796.88;5003002;28;20168;-51
2021/11/01 12:08:34;;;;;;;9.05;1.50;;;;;;;14.51;49.28;97808.91;5001793;28;20050;-52
2021/11/01 12:11:29;;;;;;;3.80;0.40;;;;;;;14.40;48.77;97797.28;4988942;28;20079;-50
2021/11/01 12:14:14;;;;;;;1.45;0.20;;;;;;;14.25;49.47;97801.59;5002214;28;20083;-52
2021/11/01 12:19:24;;;;;;;2.33;0.60;;;;;;;14.17;50.17;97813.31;5004052;28;20046;-54
2021/11/01 12:21:52;;;;;;;3.83;1.58;;;;;;;14.13;50.24;97808.31;5001529;28;20093;-54
2021/11/01 12:24:21;;;;;;;2.50;0.73;;;;;;;14.09;49.74;97809.38;5001996;28;20105;-52
2021/11/01 12:27:04;;;;;;;5.03;0.40;;;;;;;14.01;49.72;97820.19;5002142;28;20065;-51
2021/11/01 12:29:32;;;;;;;1.98;0.70;;;;;;;13.93;48.98;97818.91;5005395;28;20120;-54
2021/11/01 12:32:06;;;;;;;5.75;0.80;;;;;;;13.84;49.51;97817.63;5004579;28;20104;-49
2021/11/01 12:34:40;;;;;;;4.78;0.70;;;;;;;13.77;50.31;97816.28;5003119;28;20049;-49
2021/11/01 12:37:15;;;;;;;8.85;2.08;;;;;;;13.79;51.28;97815.28;5007304;28;20199;-47
2021/11/01 12:39:46;;;;;;;4.95;0.82;;;;;;;13.74;50.52;97817.25;5003782;28;20046;-50
2021/11/01 12:57:04;;;;;;;4.80;1.08;;;;;;;13.24;51.66;97845.72;5003448;28;20544;-50
2021/11/01 12:59:37;;;;;;;1.73;0.60;;;;;;;13.22;51.94;97843.22;5000569;28;20426;-49
2021/11/01 13:02:04;;;;;;;2.60;1.23;;;;;;;13.20;51.64;97838.97;5004465;28;20050;-48
2021/11/01 13:04:38;;;;;;;3.28;1.15;;;;;;;13.13;51.55;97842.81;5008418;28;20524;-51
2021/11/01 13:07:22;;;;;;;;;;;;;;;12.93;51.87;97836.81;5004850;28;20449;-47
2021/11/01 13:09:55;;;;;;;20.80;3.65;;;;;;;12.97;52.00;97849.59;5006354;28;20462;-51
2021/11/01 13:12:41;;;;;;;10.82;3.03;;;;;;;12.93;52.42;97839.41;5007363;28;20044;-54
2021/11/01 13:20:56;;;;;;;14.75;4.07;;;;;;;12.76;52.35;97851.44;4986947;28;20046;-52
2021/11/01 13:23:25;;;;;;;6.32;1.38;;;;;;;12.73;52.34;97852.44;5008132;28;20477;-57
2021/11/01 13:26:13;;;;;;;3.78;1.52;;;;;;;12.72;53.01;97848.16;5002779;28;20103;-55
2021/11/01 13:28:50;;;;;;;5.00;1.65;;;;;;;12.72;53.35;97844.72;4988659;28;20058;-54
2021/11/01 13:34:47;;;;;;;3.55;0.70;;;;;;;12.74;53.07;97858.47;4979254;28;20054;-54
2021/11/01 13:37:18;;;;;;;5.35;1.27;;;;;;;12.78;53.58;97847.03;5004062;28;20046;-52
2021/11/01 13:39:45;;;;;;;2.83;0.98;;;;;;;12.84;53.27;97844.13;5004210;28;20758;-56
2021/11/01 13:42:16;;;;;;;1.30;0.63;;;;;;;12.89;53.62;97851.72;5003885;28;20045;-52
2021/11/01 13:44:44;;;;;;;2.45;1.30;;;;;;;12.85;53.00;97840.63;5003625;28;20956;-51
2021/11/01 13:47:15;;;;;;;3.22;0.80;;;;;;;12.83;53.08;97855.44;4984938;28;20081;-56
2021/11/01 13:49:45;;;;;;;2.60;0.77;;;;;;;12.84;53.71;97859.72;4998281;28;20120;-53
2021/11/01 13:52:35;;;;;;;1.33;0.32;;;;;;;12.83;53.99;97858.03;5001734;28;20054;-53
2021/11/01 13:55:07;;;;;;;4.22;0.90;;;;;;;12.80;53.58;97863.38;4988476;28;20054;-56
2021/11/01 13:57:47;;;;;;;1.40;0.40;;;;;;;12.78;53.73;97859.16;5004651;28;20053;-55
2021/11/01 14:03:09;;;;;;;3.03;0.73;;;;;;;12.78;53.15;97854.81;5007356;28;20100;-47
2021/11/01 14:11:32;;;;;;;2.53;0.93;;;;;;;12.63;54.29;97871.13;5011037;28;20042;-57
2021/11/01 14:14:12;;;;;;;9.60;3.08;;;;;;;12.63;53.94;97871.13;5007495;28;20049;-51
2021/11/01 14:16:50;;;;;;;20.58;4.72;;;;;;;12.60;54.72;97867.75;5007228;28;20100;-52
2021/11/01 14:19:33;;;;;;;24.23;6.22;;;;;;;12.56;54.71;97876.59;5004239;28;20717;-52
2021/11/01 14:27:50;;;;;;;8.45;2.00;;;;;;;12.42;55.47;97884.16;5007025;28;20516;-55
2021/11/01 14:33:28;;;;;;;13.48;3.90;;;;;;;12.37;55.01;97888.72;5006582;28;20109;-54
2021/11/01 14:36:10;;;;;;;15.68;3.78;;;;;;;12.32;55.53;97879.41;5006477;28;20061;-50
2021/11/01 15:01:15;;;;;;;4.53;1.08;;;;;;;11.86;57.98;97909.91;4996641;28;20061;-54
2021/11/01 15:09:33;;;;;;;5.88;1.85;;;;;;;11.74;57.96;97919.91;5003751;28;21442;-51
2021/11/01 15:14:55;;;;;;;4.18;0.63;;;;;;;11.54;58.24;97923.31;5006561;28;20054;-48
2021/11/01 15:17:31;;;;;;;3.20;0.77;;;;;;;11.48;57.99;97928.75;5004531;28;20094;-54
2021/11/01 15:20:15;;;;;;;0.80;0.65;;;;;;;11.43;58.91;97931.53;5004206;28;20054;-48
2021/11/01 15:25:48;;;;;;;1.60;0.88;;;;;;;11.41;59.49;97948.88;5005270;28;20041;-51
2021/11/01 15:28:46;;;;;;;1.98;0.65;;;;;;;11.37;59.70;97945.56;5005039;28;20049;-57
2021/11/01 15:31:31;;;;;;;0.47;0.47;;;;;;;11.34;59.49;97947.47;5004095;28;20100;-57
2021/11/01 15:34:42;;;;;;;0.85;0.43;;;;;;;11.27;59.07;97955.47;5001524;28;20585;-53
2021/11/01 15:37:11;;;;;;;5.07;0.88;;;;;;;11.21;59.87;97958.28;4999606;28;20120;-55
2021/11/01 15:39:43;;;;;;;2.65;0.73;;;;;;;11.14;59.29;97959.41;5003458;28;20069;-52
2021/11/01 16:15:31;;;;;;;1.17;0.40;;;;;;;11.08;60.61;97964.84;5011518;28;20478;-55
2021/11/01 16:16:18;;;;;;;24.95;5.60;;;;;;;10.56;61.18;97981.41;5003624;28;20057;-48
2021/11/01 16:18:37;;;;;;;15.20;3.03;;;;;;;10.47;61.70;97983.44;5003361;28;20053;-57
2021/11/01 16:21:04;;;;;;;42.38;8.82;;;;;;;10.41;61.63;97983.63;5000832;28;20112;-51
2021/11/01 16:23:35;;;;;;;24.48;5.00;;;;;;;10.35;61.55;97986.44;5006459;28;20049;-49
2021/11/01 16:29:04;;;;;;;22.40;4.22;;;;;;;10.23;62.27;97988.53;5004133;28;20058;-48
2021/11/01 16:31:43;;;;;;;19.63;6.03;;;;;;;10.18;61.85;97987.00;5003270;28;20061;-54
2021/11/01 16:34:19;;;;;;;7.28;2.75;;;;;;;10.09;62.08;97993.34;5001606;28;20088;-52
2021/11/01 16:39:47;;;;;;;4.28;2.30;;;;;;;9.93;62.78;97991.25;4999194;28;20410;-53
2021/11/01 16:42:17;;;;;;;4.00;1.60;;;;;;;9.87;62.54;97994.91;5004173;28;20092;-55
2021/11/01 16:44:44;;;;;;;3.17;1.70;;;;;;;9.81;63.02;98008.03;5005602;28;20049;-57
2021/11/01 16:47:11;;;;;;;1.77;0.75;;;;;;;9.75;62.64;98006.50;5005180;28;20092;-49
2021/11/01 16:49:38;;;;;;;1.23;0.30;;;;;;;9.71;62.57;98017.84;5003823;28;20119;-57
2021/11/01 16:52:14;;;;;;;2.83;0.82;;;;;;;9.63;62.91;98009.50;5006967;28;20058;-55
2021/11/01 16:54:46;;;;;;;12.50;5.18;;;;;;;9.56;62.92;98019.16;5005877;28;20436;-56
2021/11/01 16:57:31;;;;;;;18.77;6.95;;;;;;;9.49;62.66;98010.75;5004407;28;20060;-54
2021/11/01 17:03:06;;;;;;;20.38;6.85;;;;;;;9.37;62.77;98013.72;5004494;28;20058;-56
2021/11/01 17:05:57;;;;;;;23.85;7.50;;;;;;;9.32;63.25;98020.78;5011049;28;20106;-52
2021/11/01 17:22:27;;;;;;;7.68;4.15;;;;;;;8.99;64.52;98032.88;4990890;28;21289;-54
2021/11/01 17:24:58;;;;;;;9.10;3.80;;;;;;;8.96;64.30;98034.72;5006593;28;20050;-53
2021/11/01 17:30:43;;;;;;;5.72;2.70;;;;;;;8.90;64.04;98042.63;5014850;28;20077;-53
2021/11/01 17:36:23;;;;;;;5.05;2.70;;;;;;;8.79;64.93;98037.78;5003677;28;20518;-51
2021/11/01 18:23:53;;;;;;;7.15;2.95;;;;;;;8.77;64.24;98047.28;5005816;28;20050;-55